createdAt,value
2015-09-10T00:00:10.639Z,73775
2015-09-10T00:00:23.047Z,73768
2015-09-10T00:00:34.766Z,73774
2015-09-10T00:00:47.219Z,73773
2015-09-10T00:00:59.484Z,73782
2015-09-10T00:01:11.922Z,73771
2015-09-10T00:01:24.362Z,73774
2015-09-10T00:01:36.784Z,73770
2015-09-10T00:01:49.222Z,73769
2015-09-10T00:02:01.612Z,73778
2015-09-10T00:02:14.019Z,73769
2015-09-10T00:02:26.410Z,73775
2015-09-10T00:02:38.848Z,73766
2015-09-10T00:02:51.254Z,73772
2015-09-10T00:03:03.645Z,73771
2015-09-10T00:03:16.035Z,73775
2015-09-10T00:03:28.443Z,73774
2015-09-10T00:03:40.834Z,73768
2015-09-10T00:03:53.256Z,73773
2015-09-10T00:04:05.678Z,73772
2015-09-10T00:04:18.178Z,73775
2015-09-10T00:04:30.649Z,73775
2015-09-10T00:04:43.086Z,73768
2015-09-10T00:04:55.524Z,73773
2015-09-10T00:05:07.945Z,73768
2015-09-10T00:05:20.367Z,73772
2015-09-10T00:05:32.104Z,73772
2015-09-10T00:05:44.526Z,73766
2015-09-10T00:05:56.916Z,73772
2015-09-10T00:06:09.322Z,73763
2015-09-10T00:06:21.713Z,73764
2015-09-10T00:06:34.121Z,73775
2015-09-10T00:06:46.528Z,73759
2015-09-10T00:06:58.918Z,73768
2015-09-10T00:07:11.324Z,73766
2015-09-10T00:07:23.715Z,73768
2015-09-10T00:07:36.139Z,73770
2015-09-10T00:07:47.920Z,73766
2015-09-10T00:08:00.436Z,73769
2015-09-10T00:08:12.858Z,73775
2015-09-10T00:08:25.280Z,73767
2015-09-10T00:08:37.703Z,73771
2015-09-10T00:08:50.125Z,73764
2015-09-10T00:09:02.532Z,73766
2015-09-10T00:09:14.922Z,73767
2015-09-10T00:09:27.375Z,73765
2015-09-10T00:09:39.815Z,73769
2015-09-10T00:09:51.549Z,73770
2015-09-10T00:10:03.799Z,73768
2015-09-10T00:10:16.190Z,73767
2015-09-10T00:10:28.612Z,73761
2015-09-10T00:10:41.004Z,73770
2015-09-10T00:10:53.504Z,73772
2015-09-10T00:11:05.911Z,73762
2015-09-10T00:11:18.332Z,73766
2015-09-10T00:11:30.770Z,73763
2015-09-10T00:11:43.194Z,73764
2015-09-10T00:11:55.616Z,73767
2015-09-10T00:12:08.038Z,73765
2015-09-10T00:12:20.475Z,73765
2015-09-10T00:12:32.913Z,73766
2015-09-10T00:12:45.321Z,73766
2015-09-10T00:12:57.774Z,73766
2015-09-10T00:13:10.165Z,73764
2015-09-10T00:13:22.571Z,73767
2015-09-10T00:13:34.961Z,73765
2015-09-10T00:13:47.354Z,73761
2015-09-10T00:13:59.776Z,73764
2015-09-10T00:14:12.151Z,73763
2015-09-10T00:14:24.557Z,73765
2015-09-10T00:14:36.980Z,73767
2015-09-10T00:14:49.371Z,73765
2015-09-10T00:15:01.808Z,73763
2015-09-10T00:15:14.527Z,73768
2015-09-10T00:15:26.964Z,73763
2015-09-10T00:15:39.388Z,73764
2015-09-10T00:15:51.888Z,73762
2015-09-10T00:16:04.279Z,73762
2015-09-10T00:16:16.670Z,73765
2015-09-10T00:16:29.091Z,73768
2015-09-10T00:16:41.485Z,73763
2015-09-10T00:16:53.891Z,73766
2015-09-10T00:17:06.282Z,73762
2015-09-10T00:17:18.688Z,73765
2015-09-10T00:17:31.126Z,73764
2015-09-10T00:17:43.595Z,73763
2015-09-10T00:17:56.002Z,73767
2015-09-10T00:18:08.408Z,73763
2015-09-10T00:18:20.814Z,73767
2015-09-10T00:18:33.236Z,73761
2015-09-10T00:18:45.692Z,73761
2015-09-10T00:18:58.192Z,73768
2015-09-10T00:19:10.583Z,73761
2015-09-10T00:19:22.989Z,73764
2015-09-10T00:19:35.380Z,73762
2015-09-10T00:19:47.943Z,73766
2015-09-10T00:20:00.349Z,73766
2015-09-10T00:20:12.740Z,73761
2015-09-10T00:20:25.146Z,73763
2015-09-10T00:20:37.553Z,73765
2015-09-10T00:20:49.961Z,73771
2015-09-10T00:21:02.414Z,73764
2015-09-10T00:21:14.898Z,73768
2015-09-10T00:21:27.320Z,73762
2015-09-10T00:21:39.742Z,73765
2015-09-10T00:21:52.166Z,73768
2015-09-10T00:22:04.572Z,73766
2015-09-10T00:22:16.963Z,73767
2015-09-10T00:22:29.353Z,73767
2015-09-10T00:22:41.744Z,73767
2015-09-10T00:22:54.152Z,73772
2015-09-10T00:23:06.605Z,73763
2015-09-10T00:23:19.027Z,73770
2015-09-10T00:23:31.418Z,73769
2015-09-10T00:23:43.824Z,73769
2015-09-10T00:23:56.232Z,73768
2015-09-10T00:24:07.936Z,73764
2015-09-10T00:24:20.420Z,73768
2015-09-10T00:24:32.920Z,73769
2015-09-10T00:24:45.357Z,73759
2015-09-10T00:24:57.766Z,73764
2015-09-10T00:25:10.188Z,73760
2015-09-10T00:25:22.641Z,73763
2015-09-10T00:25:35.047Z,73763
2015-09-10T00:25:47.438Z,73760
2015-09-10T00:25:59.861Z,73765
2015-09-10T00:26:11.643Z,73756
2015-09-10T00:26:24.049Z,73760
2015-09-10T00:26:36.455Z,73763
2015-09-10T00:26:48.861Z,73763
2015-09-10T00:27:01.255Z,73757
2015-09-10T00:27:13.646Z,73762
2015-09-10T00:27:26.146Z,73761
2015-09-10T00:27:38.630Z,73764
2015-09-10T00:27:51.036Z,73764
2015-09-10T00:28:03.460Z,73763
2015-09-10T00:28:15.882Z,73766
2015-09-10T00:28:28.398Z,73756
2015-09-10T00:28:40.820Z,73764
2015-09-10T00:28:53.273Z,73759
2015-09-10T00:29:05.680Z,73761
2015-09-10T00:29:18.102Z,73760
2015-09-10T00:29:30.492Z,73761
2015-09-10T00:29:43.008Z,73757
2015-09-10T00:29:55.492Z,73758
2015-09-10T00:30:07.885Z,73758
2015-09-10T00:30:20.276Z,73763
2015-09-10T00:30:32.666Z,73755
2015-09-10T00:30:45.073Z,73759
2015-09-10T00:30:57.323Z,73756
2015-09-10T00:31:09.731Z,73760
2015-09-10T00:31:22.168Z,73758
2015-09-10T00:31:34.653Z,73760
2015-09-10T00:31:47.075Z,73753
2015-09-10T00:31:59.512Z,73760
2015-09-10T00:32:11.953Z,73758
2015-09-10T00:32:24.374Z,73758
2015-09-10T00:32:36.859Z,73755
2015-09-10T00:32:49.281Z,73760
2015-09-10T00:33:01.671Z,73754
2015-09-10T00:33:14.094Z,73757
2015-09-10T00:33:26.516Z,73753
2015-09-10T00:33:38.907Z,73756
2015-09-10T00:33:51.313Z,73756
2015-09-10T00:34:03.706Z,73754
2015-09-10T00:34:16.096Z,73748
2015-09-10T00:34:28.502Z,73756
2015-09-10T00:34:40.956Z,73751
2015-09-10T00:34:53.362Z,73752
2015-09-10T00:35:05.769Z,73749
2015-09-10T00:35:18.207Z,73753
2015-09-10T00:35:30.628Z,73755
2015-09-10T00:35:43.128Z,73757
2015-09-10T00:35:55.628Z,73754
2015-09-10T00:36:07.303Z,73754
2015-09-10T00:36:19.710Z,73757
2015-09-10T00:36:32.100Z,73752
2015-09-10T00:36:44.506Z,73752
2015-09-10T00:36:56.897Z,73754
2015-09-10T00:37:09.304Z,73750
2015-09-10T00:37:21.695Z,73750
2015-09-10T00:37:34.070Z,73758
2015-09-10T00:37:46.476Z,73746
2015-09-10T00:37:58.882Z,73756
2015-09-10T00:38:11.276Z,73754
2015-09-10T00:38:23.667Z,73748
2015-09-10T00:38:36.167Z,73746
2015-09-10T00:38:48.651Z,73752
2015-09-10T00:39:01.057Z,73744
2015-09-10T00:39:13.449Z,73753
2015-09-10T00:39:25.136Z,73746
2015-09-10T00:39:37.543Z,73750
2015-09-10T00:39:49.980Z,73743
2015-09-10T00:40:02.386Z,73746
2015-09-10T00:40:14.796Z,73748
2015-09-10T00:40:27.186Z,73751
2015-09-10T00:40:39.577Z,73746
2015-09-10T00:40:51.999Z,73751
2015-09-10T00:41:04.405Z,73750
2015-09-10T00:41:16.828Z,73750
2015-09-10T00:41:29.250Z,73748
2015-09-10T00:41:41.687Z,73742
2015-09-10T00:41:54.109Z,73751
2015-09-10T00:42:06.547Z,73747
2015-09-10T00:42:19.050Z,73753
2015-09-10T00:42:31.518Z,73749
2015-09-10T00:42:43.909Z,73749
2015-09-10T00:42:56.315Z,73749
2015-09-10T00:43:08.722Z,73749
2015-09-10T00:43:21.114Z,73752
2015-09-10T00:43:33.505Z,73752
2015-09-10T00:43:45.911Z,73752
2015-09-10T00:43:58.317Z,73749
2015-09-10T00:44:10.708Z,73753
2015-09-10T00:44:23.209Z,73747
2015-09-10T00:44:35.615Z,73748
2015-09-10T00:44:48.037Z,73746
2015-09-10T00:45:00.443Z,73748
2015-09-10T00:45:12.865Z,73749
2015-09-10T00:45:25.305Z,73747
2015-09-10T00:45:37.820Z,73752
2015-09-10T00:45:50.289Z,73743
2015-09-10T00:46:02.711Z,73746
2015-09-10T00:46:15.117Z,73750
2015-09-10T00:46:27.510Z,73750
2015-09-10T00:46:39.900Z,73747
2015-09-10T00:46:52.307Z,73744
2015-09-10T00:47:04.697Z,73751
2015-09-10T00:47:17.138Z,73747
2015-09-10T00:47:29.544Z,73750
2015-09-10T00:47:41.935Z,73746
2015-09-10T00:47:54.341Z,73747
2015-09-10T00:48:06.763Z,73740
2015-09-10T00:48:19.170Z,73742
2015-09-10T00:48:31.592Z,73744
2015-09-10T00:48:44.029Z,73746
2015-09-10T00:48:56.436Z,73743
2015-09-10T00:49:08.858Z,73746
2015-09-10T00:49:21.297Z,73746
2015-09-10T00:49:33.735Z,73741
2015-09-10T00:49:46.141Z,73747
2015-09-10T00:49:58.547Z,73745
2015-09-10T00:50:10.938Z,73744
2015-09-10T00:50:23.331Z,73746
2015-09-10T00:50:35.722Z,73747
2015-09-10T00:50:48.097Z,73741
2015-09-10T00:51:00.550Z,73744
2015-09-10T00:51:12.988Z,73742
2015-09-10T00:51:25.380Z,73741
2015-09-10T00:51:37.802Z,73748
2015-09-10T00:51:50.224Z,73744
2015-09-10T00:52:02.630Z,73748
2015-09-10T00:52:15.036Z,73743
2015-09-10T00:52:27.459Z,73739
2015-09-10T00:52:39.881Z,73748
2015-09-10T00:52:52.303Z,73741
2015-09-10T00:53:04.725Z,73745
2015-09-10T00:53:17.147Z,73741
2015-09-10T00:53:29.539Z,73744
2015-09-10T00:53:41.930Z,73746
2015-09-10T00:53:54.399Z,73742
2015-09-10T00:54:06.852Z,73743
2015-09-10T00:54:19.133Z,73739
2015-09-10T00:54:31.557Z,73737
2015-09-10T00:54:43.948Z,73742
2015-09-10T00:54:56.338Z,73735
2015-09-10T00:55:08.745Z,73742
2015-09-10T00:55:21.151Z,73741
2015-09-10T00:55:33.559Z,73740
2015-09-10T00:55:45.981Z,73747
2015-09-10T00:55:58.418Z,73740
2015-09-10T00:56:10.840Z,73745
2015-09-10T00:56:23.262Z,73739
2015-09-10T00:56:35.702Z,73742
2015-09-10T00:56:48.170Z,73742
2015-09-10T00:57:00.624Z,73741
2015-09-10T00:57:13.030Z,73748
2015-09-10T00:57:25.420Z,73740
2015-09-10T00:57:37.829Z,73734
2015-09-10T00:57:50.219Z,73744
2015-09-10T00:58:02.688Z,73741
2015-09-10T00:58:15.126Z,73743
2015-09-10T00:58:27.516Z,73740
2015-09-10T00:58:39.924Z,73736
2015-09-10T00:58:52.331Z,73744
2015-09-10T00:59:04.737Z,73741
2015-09-10T00:59:17.143Z,73741
2015-09-10T00:59:29.565Z,73743
2015-09-10T00:59:42.005Z,73742
2015-09-10T00:59:54.442Z,73743
2015-09-10T01:00:06.880Z,73738
2015-09-10T01:00:19.301Z,73743
2015-09-10T01:00:31.801Z,73735
2015-09-10T01:00:44.210Z,73744
2015-09-10T01:00:56.600Z,73738
2015-09-10T01:01:09.022Z,73744
2015-09-10T01:01:21.428Z,73737
2015-09-10T01:01:33.819Z,73745
2015-09-10T01:01:46.227Z,73737
2015-09-10T01:01:58.649Z,73744
2015-09-10T01:02:11.055Z,73737
2015-09-10T01:02:23.446Z,73743
2015-09-10T01:02:35.852Z,73744
2015-09-10T01:02:48.306Z,73740
2015-09-10T01:03:00.713Z,73741
2015-09-10T01:03:12.963Z,73736
2015-09-10T01:03:25.385Z,73739
2015-09-10T01:03:37.806Z,73741
2015-09-10T01:03:50.230Z,73747
2015-09-10T01:04:02.683Z,73738
2015-09-10T01:04:15.105Z,73741
2015-09-10T01:04:27.496Z,73744
2015-09-10T01:04:39.921Z,73740
2015-09-10T01:04:52.421Z,73737
2015-09-10T01:05:04.811Z,73735
2015-09-10T01:05:17.202Z,73742
2015-09-10T01:05:29.608Z,73742
2015-09-10T01:05:42.017Z,73743
2015-09-10T01:05:54.407Z,73738
2015-09-10T01:06:06.907Z,73739
2015-09-10T01:06:19.360Z,73739
2015-09-10T01:06:31.767Z,73734
2015-09-10T01:06:44.205Z,73738
2015-09-10T01:06:56.627Z,73733
2015-09-10T01:07:09.049Z,73741
2015-09-10T01:07:21.471Z,73731
2015-09-10T01:07:33.924Z,73735
2015-09-10T01:07:46.427Z,73732
2015-09-10T01:07:58.864Z,73737
2015-09-10T01:08:11.255Z,73736
2015-09-10T01:08:23.661Z,73733
2015-09-10T01:08:36.052Z,73735
2015-09-10T01:08:48.460Z,73732
2015-09-10T01:09:00.851Z,73736
2015-09-10T01:09:13.429Z,73733
2015-09-10T01:09:25.819Z,73732
2015-09-10T01:09:38.226Z,73737
2015-09-10T01:09:50.633Z,73732
2015-09-10T01:10:03.070Z,73736
2015-09-10T01:10:15.539Z,73728
2015-09-10T01:10:27.961Z,73731
2015-09-10T01:10:40.399Z,73733
2015-09-10T01:10:52.822Z,73730
2015-09-10T01:11:05.244Z,73734
2015-09-10T01:11:17.682Z,73734
2015-09-10T01:11:30.119Z,73732
2015-09-10T01:11:42.526Z,73731
2015-09-10T01:11:54.918Z,73731
2015-09-10T01:12:07.324Z,73729
2015-09-10T01:12:19.715Z,73727
2015-09-10T01:12:32.121Z,73726
2015-09-10T01:12:44.512Z,73726
2015-09-10T01:12:56.936Z,73725
2015-09-10T01:13:09.420Z,73729
2015-09-10T01:13:21.842Z,73730
2015-09-10T01:13:34.233Z,73730
2015-09-10T01:13:46.655Z,73730
2015-09-10T01:13:59.078Z,73728
2015-09-10T01:14:11.500Z,73732
2015-09-10T01:14:24.032Z,73731
2015-09-10T01:14:36.485Z,73734
2015-09-10T01:14:48.891Z,73733
2015-09-10T01:15:01.300Z,73730
2015-09-10T01:15:13.691Z,73726
2015-09-10T01:15:25.925Z,73730
2015-09-10T01:15:38.331Z,73736
2015-09-10T01:15:50.738Z,73734
2015-09-10T01:16:03.129Z,73731
2015-09-10T01:16:15.551Z,73736
2015-09-10T01:16:28.020Z,73733
2015-09-10T01:16:40.426Z,73725
2015-09-10T01:16:52.817Z,73729
2015-09-10T01:17:05.226Z,73733
2015-09-10T01:17:17.632Z,73729
2015-09-10T01:17:30.070Z,73735
2015-09-10T01:17:42.523Z,73736
2015-09-10T01:17:54.992Z,73733
2015-09-10T01:18:07.430Z,73733
2015-09-10T01:18:19.868Z,73730
2015-09-10T01:18:32.258Z,73734
2015-09-10T01:18:44.665Z,73735
2015-09-10T01:18:57.133Z,73735
2015-09-10T01:19:09.526Z,73732
2015-09-10T01:19:21.917Z,73729
2015-09-10T01:19:34.292Z,73732
2015-09-10T01:19:46.698Z,73734
2015-09-10T01:19:59.122Z,73732
2015-09-10T01:20:11.528Z,73734
2015-09-10T01:20:23.934Z,73727
2015-09-10T01:20:36.387Z,73728
2015-09-10T01:20:48.809Z,73731
2015-09-10T01:21:01.217Z,73732
2015-09-10T01:21:12.936Z,73726
2015-09-10T01:21:25.374Z,73725
2015-09-10T01:21:37.811Z,73727
2015-09-10T01:21:50.233Z,73729
2015-09-10T01:22:02.673Z,73727
2015-09-10T01:22:15.126Z,73725
2015-09-10T01:22:27.516Z,73725
2015-09-10T01:22:39.923Z,73729
2015-09-10T01:22:52.313Z,73723
2015-09-10T01:23:04.706Z,73724
2015-09-10T01:23:17.112Z,73723
2015-09-10T01:23:29.503Z,73725
2015-09-10T01:23:41.893Z,73720
2015-09-10T01:23:54.300Z,73723
2015-09-10T01:24:06.708Z,73726
2015-09-10T01:24:19.114Z,73725
2015-09-10T01:24:31.536Z,73723
2015-09-10T01:24:43.973Z,73723
2015-09-10T01:24:55.708Z,73719
2015-09-10T01:25:08.179Z,73719
2015-09-10T01:25:20.600Z,73723
2015-09-10T01:25:33.007Z,73720
2015-09-10T01:25:44.679Z,73722
2015-09-10T01:25:57.085Z,73720
2015-09-10T01:26:09.477Z,73718
2015-09-10T01:26:21.868Z,73716
2015-09-10T01:26:34.259Z,73716
2015-09-10T01:26:46.681Z,73716
2015-09-10T01:26:59.165Z,73715
2015-09-10T01:27:11.603Z,73716
2015-09-10T01:27:24.010Z,73712
2015-09-10T01:27:36.416Z,73713
2015-09-10T01:27:48.822Z,73718
2015-09-10T01:28:01.244Z,73716
2015-09-10T01:28:13.685Z,73719
2015-09-10T01:28:26.122Z,73719
2015-09-10T01:28:38.544Z,73716
2015-09-10T01:28:50.966Z,73718
2015-09-10T01:29:03.356Z,73718
2015-09-10T01:29:15.843Z,73718
2015-09-10T01:29:28.296Z,73719
2015-09-10T01:29:40.687Z,73718
2015-09-10T01:29:53.077Z,73720
2015-09-10T01:30:05.483Z,73721
2015-09-10T01:30:17.876Z,73720
2015-09-10T01:30:30.282Z,73717
2015-09-10T01:30:42.673Z,73719
2015-09-10T01:30:55.095Z,73716
2015-09-10T01:31:06.798Z,73714
2015-09-10T01:31:19.206Z,73718
2015-09-10T01:31:31.644Z,73716
2015-09-10T01:31:44.066Z,73715
2015-09-10T01:31:56.487Z,73713
2015-09-10T01:32:08.925Z,73712
2015-09-10T01:32:21.302Z,73715
2015-09-10T01:32:33.708Z,73710
2015-09-10T01:32:46.114Z,73714
2015-09-10T01:32:58.505Z,73716
2015-09-10T01:33:10.911Z,73716
2015-09-10T01:33:23.303Z,73713
2015-09-10T01:33:35.772Z,73715
2015-09-10T01:33:48.194Z,73717
2015-09-10T01:34:00.584Z,73718
2015-09-10T01:34:12.990Z,73717
2015-09-10T01:34:25.461Z,73713
2015-09-10T01:34:37.914Z,73714
2015-09-10T01:34:50.336Z,73717
2015-09-10T01:35:02.758Z,73716
2015-09-10T01:35:15.196Z,73716
2015-09-10T01:35:27.652Z,73714
2015-09-10T01:35:40.074Z,73710
2015-09-10T01:35:52.574Z,73714
2015-09-10T01:36:04.980Z,73716
2015-09-10T01:36:17.370Z,73714
2015-09-10T01:36:29.856Z,73712
2015-09-10T01:36:42.246Z,73717
2015-09-10T01:36:54.637Z,73712
2015-09-10T01:37:07.059Z,73719
2015-09-10T01:37:19.434Z,73710
2015-09-10T01:37:31.842Z,73717
2015-09-10T01:37:44.373Z,73709
2015-09-10T01:37:56.873Z,73716
2015-09-10T01:38:09.280Z,73713
2015-09-10T01:38:21.702Z,73715
2015-09-10T01:38:34.126Z,73719
2015-09-10T01:38:46.564Z,73720
2015-09-10T01:38:59.001Z,73716
2015-09-10T01:39:11.423Z,73715
2015-09-10T01:39:23.863Z,73719
2015-09-10T01:39:36.285Z,73712
2015-09-10T01:39:48.675Z,73716
2015-09-10T01:40:01.066Z,73713
2015-09-10T01:40:13.472Z,73711
2015-09-10T01:40:25.864Z,73715
2015-09-10T01:40:38.254Z,73713
2015-09-10T01:40:50.723Z,73706
2015-09-10T01:41:03.114Z,73713
2015-09-10T01:41:15.520Z,73711
2015-09-10T01:41:27.929Z,73712
2015-09-10T01:41:40.336Z,73709
2015-09-10T01:41:52.742Z,73715
2015-09-10T01:42:05.164Z,73717
2015-09-10T01:42:17.586Z,73711
2015-09-10T01:42:30.180Z,73717
2015-09-10T01:42:42.665Z,73722
2015-09-10T01:42:55.055Z,73712
2015-09-10T01:43:07.446Z,73717
2015-09-10T01:43:19.852Z,73713
2015-09-10T01:43:32.260Z,73716
2015-09-10T01:43:44.667Z,73719
2015-09-10T01:43:57.089Z,73713
2015-09-10T01:44:09.510Z,73714
2015-09-10T01:44:21.901Z,73710
2015-09-10T01:44:34.295Z,73713
2015-09-10T01:44:46.717Z,73713
2015-09-10T01:44:59.123Z,73706
2015-09-10T01:45:11.529Z,73708
2015-09-10T01:45:23.951Z,73707
2015-09-10T01:45:36.514Z,73708
2015-09-10T01:45:48.921Z,73709
2015-09-10T01:46:01.343Z,73710
2015-09-10T01:46:13.733Z,73703
2015-09-10T01:46:25.421Z,73711
2015-09-10T01:46:37.813Z,73707
2015-09-10T01:46:50.266Z,73707
2015-09-10T01:47:02.735Z,73713
2015-09-10T01:47:15.141Z,73709
2015-09-10T01:47:27.563Z,73700
2015-09-10T01:47:40.050Z,73708
2015-09-10T01:47:51.753Z,73700
2015-09-10T01:48:04.159Z,73711
2015-09-10T01:48:16.565Z,73708
2015-09-10T01:48:28.987Z,73709
2015-09-10T01:48:41.411Z,73711
2015-09-10T01:48:53.864Z,73703
2015-09-10T01:49:06.302Z,73707
2015-09-10T01:49:18.739Z,73704
2015-09-10T01:49:31.130Z,73701
2015-09-10T01:49:43.569Z,73707
2015-09-10T01:49:56.022Z,73709
2015-09-10T01:50:08.413Z,73709
2015-09-10T01:50:20.679Z,73713
2015-09-10T01:50:33.101Z,73706
2015-09-10T01:50:45.508Z,73702
2015-09-10T01:50:57.992Z,73711
2015-09-10T01:51:10.508Z,73701
2015-09-10T01:51:22.914Z,73705
2015-09-10T01:51:34.602Z,73705
2015-09-10T01:51:47.025Z,73706
2015-09-10T01:51:59.447Z,73711
2015-09-10T01:52:11.869Z,73706
2015-09-10T01:52:24.291Z,73701
2015-09-10T01:52:36.807Z,73707
2015-09-10T01:52:49.278Z,73702
2015-09-10T01:53:01.669Z,73714
2015-09-10T01:53:14.075Z,73707
2015-09-10T01:53:26.466Z,73705
2015-09-10T01:53:38.873Z,73706
2015-09-10T01:53:51.264Z,73705
2015-09-10T01:54:03.670Z,73701
2015-09-10T01:54:16.076Z,73701
2015-09-10T01:54:28.467Z,73707
2015-09-10T01:54:40.860Z,73705
2015-09-10T01:54:53.250Z,73710
2015-09-10T01:55:05.703Z,73701
2015-09-10T01:55:18.172Z,73705
2015-09-10T01:55:30.578Z,73698
2015-09-10T01:55:43.002Z,73705
2015-09-10T01:55:55.440Z,73702
2015-09-10T01:56:07.846Z,73710
2015-09-10T01:56:20.252Z,73701
2015-09-10T01:56:32.658Z,73705
2015-09-10T01:56:45.052Z,73705
2015-09-10T01:56:57.443Z,73703
2015-09-10T01:57:09.833Z,73705
2015-09-10T01:57:21.505Z,73700
2015-09-10T01:57:33.911Z,73703
2015-09-10T01:57:46.304Z,73706
2015-09-10T01:57:58.726Z,73703
2015-09-10T01:58:11.132Z,73702
2015-09-10T01:58:23.554Z,73707
2015-09-10T01:58:36.007Z,73703
2015-09-10T01:58:48.415Z,73700
2015-09-10T01:59:00.837Z,73704
2015-09-10T01:59:13.212Z,73702
2015-09-10T01:59:25.603Z,73702
2015-09-10T01:59:38.009Z,73704
2015-09-10T01:59:50.480Z,73702
2015-09-10T02:00:02.886Z,73709
2015-09-10T02:00:15.277Z,73704
2015-09-10T02:00:27.683Z,73697
2015-09-10T02:00:40.074Z,73706
2015-09-10T02:00:52.466Z,73706
2015-09-10T02:01:04.873Z,73706
2015-09-10T02:01:16.638Z,73701
2015-09-10T02:01:29.123Z,73706
2015-09-10T02:01:41.544Z,73704
2015-09-10T02:01:53.968Z,73711
2015-09-10T02:02:06.390Z,73707
2015-09-10T02:02:18.828Z,73703
2015-09-10T02:02:31.265Z,73708
2015-09-10T02:02:43.734Z,73699
2015-09-10T02:02:56.141Z,73707
2015-09-10T02:03:08.547Z,73706
2015-09-10T02:03:20.938Z,73694
2015-09-10T02:03:33.329Z,73702
2015-09-10T02:03:45.735Z,73704
2015-09-10T02:03:58.191Z,73699
2015-09-10T02:04:10.675Z,73697
2015-09-10T02:04:23.066Z,73701
2015-09-10T02:04:35.488Z,73701
2015-09-10T02:04:47.894Z,73701
2015-09-10T02:04:59.598Z,73704
2015-09-10T02:05:12.020Z,73700
2015-09-10T02:05:24.520Z,73700
2015-09-10T02:05:36.942Z,73709
2015-09-10T02:05:49.380Z,73698
2015-09-10T02:06:01.788Z,73700
2015-09-10T02:06:14.178Z,73699
2015-09-10T02:06:26.585Z,73699
2015-09-10T02:06:38.975Z,73701
2015-09-10T02:06:51.366Z,73700
2015-09-10T02:07:03.774Z,73702
2015-09-10T02:07:16.180Z,73703
2015-09-10T02:07:28.571Z,73691
2015-09-10T02:07:40.993Z,73699
2015-09-10T02:07:53.399Z,73704
2015-09-10T02:08:05.807Z,73697
2015-09-10T02:08:18.214Z,73706
2015-09-10T02:08:30.667Z,73699
2015-09-10T02:08:43.089Z,73702
2015-09-10T02:08:55.511Z,73700
2015-09-10T02:09:07.966Z,73701
2015-09-10T02:09:20.403Z,73702
2015-09-10T02:09:32.794Z,73702
2015-09-10T02:09:45.184Z,73705
2015-09-10T02:09:57.562Z,73704
2015-09-10T02:10:09.937Z,73695
2015-09-10T02:10:22.312Z,73701
2015-09-10T02:10:34.687Z,73707
2015-09-10T02:10:47.078Z,73705
2015-09-10T02:10:59.470Z,73698
2015-09-10T02:11:11.204Z,73704
2015-09-10T02:11:23.673Z,73703
2015-09-10T02:11:36.079Z,73703
2015-09-10T02:11:48.485Z,73710
2015-09-10T02:12:00.909Z,73702
2015-09-10T02:12:13.347Z,73707
2015-09-10T02:12:25.769Z,73709
2015-09-10T02:12:38.206Z,73704
2015-09-10T02:12:49.925Z,73708
2015-09-10T02:13:02.317Z,73699
2015-09-10T02:13:14.692Z,73701
2015-09-10T02:13:27.130Z,73697
2015-09-10T02:13:39.552Z,73702
2015-09-10T02:13:51.927Z,73703
2015-09-10T02:14:04.304Z,73700
2015-09-10T02:14:16.694Z,73702
2015-09-10T02:14:29.085Z,73703
2015-09-10T02:14:41.491Z,73706
2015-09-10T02:14:53.976Z,73702
2015-09-10T02:15:06.383Z,73705
2015-09-10T02:15:18.789Z,73699
2015-09-10T02:15:31.211Z,73703
2015-09-10T02:15:43.649Z,73705
2015-09-10T02:15:56.070Z,73699
2015-09-10T02:16:08.480Z,73708
2015-09-10T02:16:20.886Z,73708
2015-09-10T02:16:33.339Z,73708
2015-09-10T02:16:45.745Z,73703
2015-09-10T02:16:58.136Z,73709
2015-09-10T02:17:10.544Z,73707
2015-09-10T02:17:22.950Z,73702
2015-09-10T02:17:35.341Z,73703
2015-09-10T02:17:47.779Z,73704
2015-09-10T02:18:00.232Z,73710
2015-09-10T02:18:12.655Z,73706
2015-09-10T02:18:25.061Z,73710
2015-09-10T02:18:37.467Z,73708
2015-09-10T02:18:49.905Z,73708
2015-09-10T02:19:02.342Z,73702
2015-09-10T02:19:14.767Z,73710
2015-09-10T02:19:27.189Z,73709
2015-09-10T02:19:39.626Z,73704
2015-09-10T02:19:52.189Z,73708
2015-09-10T02:20:03.876Z,73709
2015-09-10T02:20:16.268Z,73710
2015-09-10T02:20:28.674Z,73708
2015-09-10T02:20:41.096Z,73707
2015-09-10T02:20:53.502Z,73709
2015-09-10T02:21:05.893Z,73705
2015-09-10T02:21:18.302Z,73708
2015-09-10T02:21:30.708Z,73708
2015-09-10T02:21:43.130Z,73705
2015-09-10T02:21:55.537Z,73703
2015-09-10T02:22:07.974Z,73709
2015-09-10T02:22:19.772Z,73703
2015-09-10T02:22:32.194Z,73706
2015-09-10T02:22:44.616Z,73702
2015-09-10T02:22:57.038Z,73708
2015-09-10T02:23:09.428Z,73709
2015-09-10T02:23:21.836Z,73706
2015-09-10T02:23:34.321Z,73706
2015-09-10T02:23:46.711Z,73704
2015-09-10T02:23:58.399Z,73701
2015-09-10T02:24:10.805Z,73701
2015-09-10T02:24:23.214Z,73705
2015-09-10T02:24:35.636Z,73707
2015-09-10T02:24:48.043Z,73705
2015-09-10T02:25:00.449Z,73705
2015-09-10T02:25:12.855Z,73704
2015-09-10T02:25:25.279Z,73707
2015-09-10T02:25:37.716Z,73703
2015-09-10T02:25:50.170Z,73703
2015-09-10T02:26:02.591Z,73700
2015-09-10T02:26:14.998Z,73701
2015-09-10T02:26:27.405Z,73702
2015-09-10T02:26:39.796Z,73703
2015-09-10T02:26:52.061Z,73704
2015-09-10T02:27:04.467Z,73705
2015-09-10T02:27:16.858Z,73705
2015-09-10T02:27:29.267Z,73710
2015-09-10T02:27:41.658Z,73706
2015-09-10T02:27:54.064Z,73706
2015-09-10T02:28:06.502Z,73702
2015-09-10T02:28:18.220Z,73707
2015-09-10T02:28:30.629Z,73702
2015-09-10T02:28:43.051Z,73702
2015-09-10T02:28:55.316Z,73698
2015-09-10T02:29:07.754Z,73707
2015-09-10T02:29:20.176Z,73703
2015-09-10T02:29:32.458Z,73701
2015-09-10T02:29:44.895Z,73704
2015-09-10T02:29:57.286Z,73699
2015-09-10T02:30:09.692Z,73702
2015-09-10T02:30:22.101Z,73699
2015-09-10T02:30:34.492Z,73703
2015-09-10T02:30:46.898Z,73701
2015-09-10T02:30:59.289Z,73709
2015-09-10T02:31:11.695Z,73706
2015-09-10T02:31:24.118Z,73707
2015-09-10T02:31:36.540Z,73702
2015-09-10T02:31:48.946Z,73705
2015-09-10T02:32:01.352Z,73701
2015-09-10T02:32:13.759Z,73700
2015-09-10T02:32:26.183Z,73701
2015-09-10T02:32:38.620Z,73702
2015-09-10T02:32:51.058Z,73701
2015-09-10T02:33:03.526Z,73704
2015-09-10T02:33:15.979Z,73706
2015-09-10T02:33:28.372Z,73707
2015-09-10T02:33:40.763Z,73701
2015-09-10T02:33:53.185Z,73703
2015-09-10T02:34:05.575Z,73703
2015-09-10T02:34:18.044Z,73700
2015-09-10T02:34:30.483Z,73701
2015-09-10T02:34:42.890Z,73702
2015-09-10T02:34:55.296Z,73703
2015-09-10T02:35:07.687Z,73701
2015-09-10T02:35:20.155Z,73705
2015-09-10T02:35:32.642Z,73703
2015-09-10T02:35:45.048Z,73704
2015-09-10T02:35:57.470Z,73698
2015-09-10T02:36:09.892Z,73699
2015-09-10T02:36:22.314Z,73710
2015-09-10T02:36:34.769Z,73707
2015-09-10T02:36:47.191Z,73704
2015-09-10T02:36:59.581Z,73709
2015-09-10T02:37:11.972Z,73703
2015-09-10T02:37:24.362Z,73711
2015-09-10T02:37:36.755Z,73694
2015-09-10T02:37:49.161Z,73708
2015-09-10T02:38:01.568Z,73701
2015-09-10T02:38:13.974Z,73700
2015-09-10T02:38:26.364Z,73703
2015-09-10T02:38:38.757Z,73705
2015-09-10T02:38:51.163Z,73703
2015-09-10T02:39:03.554Z,73703
2015-09-10T02:39:15.945Z,73697
2015-09-10T02:39:28.366Z,73702
2015-09-10T02:39:40.915Z,73699